createdAt,value
2019-01-12T00:03:43.728Z,26.40
2019-01-12T00:06:24.897Z,31.43
2019-01-12T00:09:05.863Z,28.13
2019-01-12T00:11:47.508Z,28.80
2019-01-12T00:14:29.184Z,30.50
2019-01-12T00:17:11.189Z,30.57
2019-01-12T00:19:52.406Z,34.87
2019-01-12T00:22:34.059Z,27.00
2019-01-12T00:25:15.508Z,29.70
2019-01-12T00:27:56.423Z,27.10
2019-01-12T00:30:38.107Z,30.23
2019-01-12T00:33:18.952Z,28.20
2019-01-12T00:35:59.761Z,27.87
2019-01-12T00:38:40.403Z,28.97
2019-01-12T00:41:21.285Z,31.67
2019-01-12T00:44:02.079Z,28.57
2019-01-12T00:46:43.985Z,30.73
2019-01-12T00:49:25.590Z,29.67
2019-01-12T00:52:06.602Z,27.83
2019-01-12T00:54:48.390Z,26.93
2019-01-12T00:57:29.523Z,26.63
2019-01-12T01:00:10.723Z,33.27
2019-01-12T01:02:52.352Z,30.67
2019-01-12T01:05:33.986Z,25.33
2019-01-12T01:08:15.293Z,28.57
2019-01-12T01:10:56.244Z,26.10
2019-01-12T01:13:37.168Z,32.20
2019-01-12T01:16:18.277Z,27.80
2019-01-12T01:18:59.618Z,31.80
2019-01-12T01:21:40.846Z,28.87
2019-01-12T01:24:22.426Z,29.83
2019-01-12T01:27:04.101Z,27.10
2019-01-12T01:29:45.323Z,29.47
2019-01-12T01:32:26.160Z,33.43
2019-01-12T01:35:07.075Z,31.53
2019-01-12T01:37:47.690Z,35.60
2019-01-12T01:40:28.735Z,27.80
2019-01-12T01:43:09.506Z,32.07
2019-01-12T01:45:51.064Z,28.40
2019-01-12T01:48:31.995Z,31.77
2019-01-12T01:51:12.906Z,32.23
2019-01-12T01:53:53.792Z,33.80
2019-01-12T01:56:35.444Z,32.30
2019-01-12T01:59:17.021Z,32.13
2019-01-12T02:01:58.487Z,32.80
2019-01-12T02:04:39.722Z,31.43
2019-01-12T02:07:20.522Z,33.50
2019-01-12T02:10:00.224Z,32.10
2019-01-12T02:12:49.142Z,28.70
2019-01-12T02:15:30.526Z,32.97
2019-01-12T02:18:11.099Z,34.47
2019-01-12T02:20:52.188Z,34.10
2019-01-12T02:23:33.848Z,32.50
2019-01-12T02:26:15.482Z,32.90
2019-01-12T02:28:57.112Z,30.23
2019-01-12T02:31:37.727Z,31.93
2019-01-12T02:34:18.491Z,33.63
2019-01-12T02:36:59.878Z,36.83
2019-01-12T02:39:40.999Z,36.87
2019-01-12T02:42:21.163Z,35.83
2019-01-12T02:45:09.868Z,33.00
2019-01-12T02:47:51.158Z,38.83
2019-01-12T02:50:32.323Z,36.43
2019-01-12T02:53:13.395Z,36.93
2019-01-12T02:55:54.642Z,36.57
2019-01-12T02:58:36.321Z,38.10
2019-01-12T03:01:17.470Z,40.03
2019-01-12T03:03:59.107Z,38.70
2019-01-12T03:06:40.074Z,40.23
2019-01-12T03:09:20.976Z,41.30
2019-01-12T03:12:02.422Z,41.10
2019-01-12T03:14:44.034Z,41.03
2019-01-12T03:17:25.144Z,43.20
2019-01-12T03:20:05.724Z,44.87
2019-01-12T03:22:45.060Z,45.83
2019-01-12T03:25:26.006Z,53.40
2019-01-12T03:28:06.973Z,49.60
2019-01-12T03:30:48.271Z,52.17
2019-01-12T03:33:29.369Z,47.93
2019-01-12T03:36:11.356Z,46.27
2019-01-12T03:38:52.847Z,52.27
2019-01-12T03:41:34.175Z,48.40
2019-01-12T03:44:15.725Z,45.07
2019-01-12T03:46:56.929Z,56.07
2019-01-12T03:49:38.350Z,49.50
2019-01-12T03:52:20.015Z,47.40
2019-01-12T03:55:01.513Z,51.17
2019-01-12T03:57:42.992Z,47.33
2019-01-12T04:00:23.546Z,50.00
2019-01-12T04:03:04.624Z,54.97
2019-01-12T04:05:45.747Z,50.83
2019-01-12T04:08:27.192Z,48.40
2019-01-12T04:11:08.251Z,50.77
2019-01-12T04:13:49.281Z,60.00
2019-01-12T04:16:30.675Z,54.70
2019-01-12T04:19:12.115Z,53.93
2019-01-12T04:21:53.136Z,56.17
2019-01-12T04:24:34.311Z,52.27
2019-01-12T04:27:14.862Z,52.53
2019-01-12T04:29:55.598Z,58.57
2019-01-12T04:32:36.124Z,55.80
2019-01-12T04:35:16.873Z,58.10
2019-01-12T04:37:57.800Z,61.07
2019-01-12T04:40:39.191Z,55.63
2019-01-12T04:43:20.975Z,66.67
2019-01-12T04:46:02.722Z,65.67
2019-01-12T04:48:44.392Z,69.27
2019-01-12T04:51:25.215Z,65.83
2019-01-12T04:54:06.626Z,71.33
2019-01-12T04:56:47.896Z,78.10
2019-01-12T04:59:29.791Z,70.63
2019-01-12T05:02:11.296Z,76.67
2019-01-12T05:04:52.468Z,80.87
2019-01-12T05:07:34.207Z,84.33
2019-01-12T05:10:15.604Z,79.67
2019-01-12T05:12:56.719Z,87.33
2019-01-12T05:15:38.266Z,86.27
2019-01-12T05:18:19.476Z,83.33
2019-01-12T05:21:00.673Z,83.37
2019-01-12T05:23:42.138Z,94.73
2019-01-12T05:26:23.508Z,98.10
2019-01-12T05:29:05.046Z,90.63
2019-01-12T05:31:46.419Z,95.83
2019-01-12T05:34:27.377Z,93.63
2019-01-12T05:37:08.873Z,100.37
2019-01-12T05:39:49.945Z,94.87
2019-01-12T05:42:30.665Z,102.53
2019-01-12T05:45:12.583Z,77.17
2019-01-12T05:47:53.265Z,60.27
2019-01-12T05:50:34.953Z,53.67
2019-01-12T05:53:14.567Z,52.10
2019-01-12T05:56:03.199Z,53.37
2019-01-12T05:58:44.167Z,52.90
2019-01-12T06:01:25.588Z,46.07
2019-01-12T06:04:07.546Z,47.80
2019-01-12T06:06:48.879Z,54.93
2019-01-12T06:09:30.143Z,58.83
2019-01-12T06:12:11.417Z,53.13
2019-01-12T06:14:52.271Z,54.67
2019-01-12T06:17:33.936Z,53.10
2019-01-12T06:20:15.879Z,54.13
2019-01-12T06:22:57.135Z,64.50
2019-01-12T06:25:38.557Z,55.50
2019-01-12T06:28:19.602Z,53.23
2019-01-12T06:31:00.574Z,55.40
2019-01-12T06:33:40.166Z,52.70
2019-01-12T06:36:28.759Z,57.33
2019-01-12T06:39:09.830Z,55.47
2019-01-12T06:41:51.731Z,51.27
2019-01-12T06:44:33.248Z,53.97
2019-01-12T06:47:14.444Z,55.13
2019-01-12T06:49:55.756Z,56.70
2019-01-12T06:52:36.714Z,57.53
2019-01-12T06:55:17.564Z,63.67
2019-01-12T06:57:57.431Z,54.47
2019-01-12T07:00:45.694Z,60.07
2019-01-12T07:03:27.294Z,67.17
2019-01-12T07:06:09.217Z,64.27
2019-01-12T07:08:50.629Z,51.10
2019-01-12T07:11:31.303Z,76.50
2019-01-12T07:14:12.300Z,73.50
2019-01-12T07:16:53.711Z,77.23
2019-01-12T07:19:34.908Z,86.43
2019-01-12T07:22:15.981Z,83.80
2019-01-12T07:24:57.085Z,86.73
2019-01-12T07:27:38.476Z,91.80
2019-01-12T07:30:20.537Z,84.37
2019-01-12T07:33:01.462Z,99.90
2019-01-12T07:35:42.641Z,106.17
2019-01-12T07:38:23.747Z,154.57
2019-01-12T07:41:05.496Z,151.07
2019-01-12T07:43:46.609Z,142.23
2019-01-12T07:46:26.630Z,124.60
2019-01-12T07:49:08.191Z,135.33
2019-01-12T07:51:49.645Z,124.60
2019-01-12T07:54:31.470Z,128.60
2019-01-12T07:57:13.333Z,115.50
2019-01-12T07:59:54.602Z,105.13
2019-01-12T08:02:36.263Z,121.03
2019-01-12T08:05:16.897Z,114.63
2019-01-12T08:07:58.882Z,115.73
2019-01-12T08:10:40.153Z,131.23
2019-01-12T08:13:20.797Z,111.43
2019-01-12T08:16:02.798Z,155.23
2019-01-12T08:18:44.329Z,147.10
2019-01-12T08:21:26.048Z,130.23
2019-01-12T08:24:07.281Z,119.20
2019-01-12T08:26:49.316Z,125.13
2019-01-12T08:29:30.701Z,126.37
2019-01-12T08:32:12.488Z,119.20
2019-01-12T08:34:53.792Z,135.70
2019-01-12T08:37:34.982Z,129.17
2019-01-12T08:40:16.495Z,130.13
2019-01-12T08:42:58.297Z,120.20
2019-01-12T08:45:39.860Z,123.00
2019-01-12T08:48:21.420Z,101.43
2019-01-12T08:51:02.124Z,104.70
2019-01-12T08:53:43.534Z,116.80
2019-01-12T08:56:24.491Z,104.20
2019-01-12T08:59:06.073Z,111.57
2019-01-12T09:01:47.580Z,113.07
2019-01-12T09:04:28.952Z,117.30
2019-01-12T09:07:09.781Z,103.83
2019-01-12T09:09:50.716Z,109.27
2019-01-12T09:12:31.897Z,126.50
2019-01-12T09:15:13.232Z,124.50
2019-01-12T09:17:55.003Z,131.13
2019-01-12T09:20:37.688Z,130.97
2019-01-12T09:23:19.521Z,127.30
2019-01-12T09:26:01.003Z,121.83
2019-01-12T09:28:42.182Z,136.27
2019-01-12T09:31:22.880Z,95.13
2019-01-12T09:34:02.680Z,114.23
2019-01-12T09:36:51.447Z,96.77
2019-01-12T09:39:33.481Z,99.10
2019-01-12T09:42:15.100Z,107.67
2019-01-12T09:44:56.415Z,103.83
2019-01-12T09:47:37.617Z,112.27
2019-01-12T09:50:18.878Z,91.60
2019-01-12T09:53:00.628Z,102.10
2019-01-12T09:55:41.860Z,100.40
2019-01-12T09:58:23.819Z,102.33
2019-01-12T10:01:05.065Z,83.37
2019-01-12T10:03:45.807Z,90.43
2019-01-12T10:06:26.594Z,84.87
2019-01-12T10:09:07.583Z,96.63
2019-01-12T10:11:49.613Z,81.67
2019-01-12T10:14:30.649Z,83.73
2019-01-12T10:17:12.565Z,87.27
2019-01-12T10:19:54.136Z,96.43
2019-01-12T10:22:35.497Z,79.27
2019-01-12T10:25:16.189Z,94.10
2019-01-12T10:27:57.625Z,94.37
2019-01-12T10:30:38.583Z,102.87
2019-01-12T10:33:20.017Z,113.50
2019-01-12T10:36:01.536Z,84.97
2019-01-12T10:38:42.993Z,79.27
2019-01-12T10:41:24.956Z,74.40
2019-01-12T10:44:06.310Z,80.10
2019-01-12T10:46:47.835Z,84.07
2019-01-12T10:49:28.478Z,75.33
2019-01-12T10:52:18.036Z,74.40
2019-01-12T10:54:59.199Z,75.97
2019-01-12T10:57:40.586Z,79.70
2019-01-12T11:00:21.983Z,66.30
2019-01-12T11:03:03.855Z,66.40
2019-01-12T11:05:44.952Z,62.77
2019-01-12T11:08:26.243Z,70.97
2019-01-12T11:11:07.043Z,70.57
2019-01-12T11:13:48.877Z,70.13
2019-01-12T11:16:30.502Z,57.53
2019-01-12T11:19:12.031Z,61.83
2019-01-12T11:21:52.722Z,62.70
2019-01-12T11:24:32.458Z,64.83
2019-01-12T11:27:20.763Z,69.37
2019-01-12T11:30:01.800Z,62.63
2019-01-12T11:32:42.921Z,71.87
2019-01-12T11:35:23.895Z,64.43
2019-01-12T11:38:04.770Z,65.53
2019-01-12T11:40:46.621Z,66.57
2019-01-12T11:43:27.610Z,71.10
2019-01-12T11:46:09.255Z,73.33
2019-01-12T11:48:50.745Z,63.93
2019-01-12T11:51:31.426Z,71.67
2019-01-12T11:54:11.521Z,82.50
2019-01-12T11:56:53.176Z,85.93
2019-01-12T11:59:33.873Z,85.53
2019-01-12T12:02:14.855Z,74.23
2019-01-12T12:04:56.496Z,67.73
2019-01-12T12:07:37.912Z,64.23
2019-01-12T12:10:19.766Z,77.70
2019-01-12T12:13:00.458Z,74.37
2019-01-12T12:15:41.330Z,70.10
2019-01-12T12:18:22.726Z,72.97
2019-01-12T12:21:04.145Z,80.47
2019-01-12T12:23:45.955Z,81.50
2019-01-12T12:26:25.816Z,84.60
2019-01-12T12:29:07.157Z,83.43
2019-01-12T12:31:48.641Z,93.60
2019-01-12T12:34:30.486Z,74.07
2019-01-12T12:37:11.789Z,74.63
2019-01-12T12:39:52.628Z,74.77
2019-01-12T12:42:33.131Z,91.03
2019-01-12T12:45:14.861Z,83.20
2019-01-12T12:47:54.289Z,69.13
2019-01-12T12:50:43.266Z,83.30
2019-01-12T12:53:24.220Z,86.33
2019-01-12T12:56:05.691Z,99.43
2019-01-12T12:58:46.863Z,85.37
2019-01-12T13:01:28.071Z,85.93
2019-01-12T13:04:08.771Z,76.67
2019-01-12T13:06:49.913Z,75.73
2019-01-12T13:09:31.652Z,78.10
2019-01-12T13:12:12.955Z,78.93
2019-01-12T13:14:53.746Z,70.73
2019-01-12T13:17:35.082Z,70.47
2019-01-12T13:20:16.156Z,61.17
2019-01-12T13:22:57.877Z,66.17
2019-01-12T13:25:39.668Z,68.60
2019-01-12T13:28:20.893Z,62.60
2019-01-12T13:31:02.755Z,69.60
2019-01-12T13:33:43.708Z,65.63
2019-01-12T13:36:25.196Z,79.10
2019-01-12T13:39:06.519Z,73.20
2019-01-12T13:41:47.448Z,86.43
2019-01-12T13:44:28.889Z,90.73
2019-01-12T13:47:09.790Z,84.53
2019-01-12T13:49:50.319Z,68.13
2019-01-12T13:52:31.881Z,82.90
2019-01-12T13:55:13.500Z,74.60
2019-01-12T13:57:55.087Z,61.27
2019-01-12T14:00:36.513Z,59.30
2019-01-12T14:03:17.908Z,69.13
2019-01-12T14:05:59.580Z,55.83
2019-01-12T14:08:40.412Z,58.27
2019-01-12T14:11:21.347Z,63.20
2019-01-12T14:14:01.968Z,51.83
2019-01-12T14:16:42.797Z,61.43
2019-01-12T14:19:24.555Z,54.57
2019-01-12T14:22:05.818Z,57.47
2019-01-12T14:24:47.206Z,69.00
2019-01-12T14:27:28.874Z,60.03
2019-01-12T14:30:15.306Z,56.10
2019-01-12T14:32:53.150Z,62.57
2019-01-12T14:35:35.059Z,68.63
2019-01-12T14:38:16.138Z,73.30
2019-01-12T14:40:56.779Z,87.27
2019-01-12T14:43:37.921Z,85.83
2019-01-12T14:46:18.755Z,89.80
2019-01-12T14:49:00.121Z,81.40
2019-01-12T14:51:41.041Z,91.23
2019-01-12T14:54:22.151Z,93.20
2019-01-12T14:57:01.598Z,82.73
2019-01-12T14:59:50.399Z,102.20
2019-01-12T15:02:31.464Z,98.77
2019-01-12T15:05:13.083Z,96.37
2019-01-12T15:07:54.608Z,97.20
2019-01-12T15:10:35.899Z,102.50
2019-01-12T15:13:17.428Z,101.63
2019-01-12T15:15:59.528Z,99.77
2019-01-12T15:18:40.676Z,102.37
2019-01-12T15:21:22.299Z,104.97
2019-01-12T15:24:02.914Z,102.97
2019-01-12T15:29:43.951Z,110.90
2019-01-12T15:32:25.411Z,114.07
2019-01-12T15:35:06.657Z,121.13
2019-01-12T15:37:47.650Z,107.77
2019-01-12T15:40:29.187Z,99.40
2019-01-12T15:43:10.152Z,113.83
2019-01-12T15:45:51.744Z,106.40
2019-01-12T15:48:33.347Z,88.30
2019-01-12T15:51:14.396Z,80.07
2019-01-12T15:53:55.746Z,77.80
2019-01-12T15:56:36.667Z,85.53
2019-01-12T15:59:17.932Z,84.03
2019-01-12T16:01:57.727Z,117.00
2019-01-12T16:04:46.498Z,123.93
2019-01-12T16:07:27.955Z,128.13
2019-01-12T16:10:08.853Z,165.50
2019-01-12T16:12:50.294Z,181.53
2019-01-12T16:15:31.740Z,178.93
2019-01-12T16:18:13.348Z,111.60
2019-01-12T16:20:54.615Z,143.20
2019-01-12T16:23:36.975Z,131.43
2019-01-12T16:26:18.485Z,147.10
2019-01-12T16:28:59.078Z,130.63
2019-01-12T16:31:40.572Z,121.87
2019-01-12T16:34:21.912Z,115.27
2019-01-12T16:37:08.073Z,105.73
2019-01-12T16:39:50.254Z,107.13
2019-01-12T16:42:31.322Z,94.93
2019-01-12T16:45:12.059Z,103.87
2019-01-12T16:47:53.676Z,105.57
2019-01-12T16:50:35.194Z,89.80
2019-01-12T16:53:16.615Z,83.83
2019-01-12T16:55:57.823Z,89.93
2019-01-12T16:58:38.530Z,84.40
2019-01-12T17:01:19.263Z,91.30
2019-01-12T17:04:00.627Z,92.87
2019-01-12T17:06:40.050Z,88.90
2019-01-12T17:09:21.522Z,89.73
2019-01-12T17:12:02.329Z,81.40
2019-01-12T17:14:43.842Z,89.40
2019-01-12T17:17:25.288Z,79.87
2019-01-12T17:20:05.917Z,80.83
2019-01-12T17:22:47.137Z,95.80
2019-01-12T17:25:28.142Z,97.17
2019-01-12T17:28:09.952Z,97.80
2019-01-12T17:30:51.225Z,88.30
2019-01-12T17:33:32.430Z,85.30
2019-01-12T17:36:13.143Z,89.27
2019-01-12T17:38:54.419Z,93.23
2019-01-12T17:41:35.522Z,82.37
2019-01-12T17:44:17.125Z,82.83
2019-01-12T17:46:58.569Z,79.13
2019-01-12T17:49:39.556Z,78.27
2019-01-12T17:52:20.343Z,75.20
2019-01-12T17:55:01.877Z,70.00
2019-01-12T17:57:43.701Z,77.20
2019-01-12T18:00:44.022Z,75.60
2019-01-12T18:03:25.430Z,78.60
2019-01-12T18:06:06.336Z,71.37
2019-01-12T18:08:47.086Z,63.87
2019-01-12T18:11:29.802Z,70.63
2019-01-12T18:14:10.572Z,68.80
2019-01-12T18:16:51.224Z,72.13
2019-01-12T18:19:32.442Z,67.83
2019-01-12T18:22:13.718Z,70.63
2019-01-12T18:24:55.049Z,66.40
2019-01-12T18:27:36.425Z,73.23
2019-01-12T18:30:18.207Z,63.87
2019-01-12T18:32:59.370Z,78.63
2019-01-12T18:35:41.143Z,78.90
2019-01-12T18:38:22.550Z,60.47
2019-01-12T18:41:03.851Z,60.20
2019-01-12T18:43:45.272Z,62.40
2019-01-12T18:46:27.283Z,64.23
2019-01-12T18:49:08.604Z,77.40
2019-01-12T18:51:49.663Z,65.23
2019-01-12T18:54:31.271Z,68.13
2019-01-12T18:57:12.595Z,55.90
2019-01-12T18:59:54.520Z,59.03
2019-01-12T19:02:35.449Z,65.13
2019-01-12T19:05:17.337Z,60.10
2019-01-12T19:07:58.007Z,49.97
2019-01-12T19:10:37.786Z,46.23
2019-01-12T19:13:26.519Z,47.77
2019-01-12T19:16:08.219Z,57.83
2019-01-12T19:18:49.944Z,45.63
2019-01-12T19:21:30.765Z,41.80
2019-01-12T19:24:11.792Z,43.53
2019-01-12T19:26:53.869Z,44.67
2019-01-12T19:29:35.156Z,38.67
2019-01-12T19:32:16.220Z,42.47
2019-01-12T19:34:57.289Z,43.47
2019-01-12T19:37:38.703Z,42.63
2019-01-12T19:40:20.070Z,44.00
2019-01-12T19:43:00.713Z,38.97
2019-01-12T19:45:42.479Z,39.90
2019-01-12T19:48:23.778Z,41.63
2019-01-12T19:51:05.065Z,41.27
2019-01-12T19:53:45.931Z,39.37
2019-01-12T19:56:26.938Z,42.47
2019-01-12T19:59:13.615Z,42.97
2019-01-12T20:01:51.383Z,40.33
2019-01-12T20:04:33.273Z,33.63
2019-01-12T20:07:14.006Z,37.53
2019-01-12T20:09:55.181Z,38.57
2019-01-12T20:12:36.640Z,34.80
2019-01-12T20:15:18.309Z,41.77
2019-01-12T20:17:58.930Z,35.87
2019-01-12T20:20:39.929Z,33.87
2019-01-12T20:23:21.569Z,33.97
2019-01-12T20:26:02.695Z,29.57
2019-01-12T20:28:43.704Z,37.10
2019-01-12T20:31:24.563Z,35.03
2019-01-12T20:34:05.901Z,35.53
2019-01-12T20:36:46.837Z,35.20
2019-01-12T20:39:30.211Z,37.83
2019-01-12T20:42:11.299Z,33.67
2019-01-12T20:44:51.872Z,32.70
2019-01-12T20:47:33.567Z,36.73
2019-01-12T20:50:14.954Z,33.10
2019-01-12T20:52:56.627Z,31.43
2019-01-12T20:55:38.108Z,27.07
2019-01-12T20:58:19.493Z,31.20
2019-01-12T21:01:00.956Z,28.77
2019-01-12T21:03:41.531Z,30.37
2019-01-12T21:06:22.651Z,30.73
2019-01-12T21:09:05.217Z,30.00
2019-01-12T21:11:46.361Z,31.80
2019-01-12T21:14:27.721Z,32.67
2019-01-12T21:17:09.461Z,35.00
2019-01-12T21:19:50.901Z,29.97
2019-01-12T21:22:31.992Z,26.63
2019-01-12T21:25:12.668Z,28.50
2019-01-12T21:27:53.685Z,29.17
2019-01-12T21:30:35.110Z,31.67
2019-01-12T21:33:16.654Z,24.37
2019-01-12T21:35:57.441Z,30.30
2019-01-12T21:38:37.625Z,30.37
2019-01-12T21:41:26.003Z,25.90
2019-01-12T21:44:07.858Z,30.17
2019-01-12T21:46:49.174Z,24.37
2019-01-12T21:49:31.005Z,22.53
2019-01-12T21:52:12.288Z,23.60
2019-01-12T21:54:53.246Z,26.70
2019-01-12T21:57:35.102Z,24.60
2019-01-12T22:00:17.035Z,25.27
2019-01-12T22:02:56.846Z,25.57
2019-01-12T22:05:38.548Z,24.27
2019-01-12T22:08:19.870Z,24.20
2019-01-12T22:11:00.644Z,28.53
2019-01-12T22:13:41.940Z,26.60
2019-01-12T22:16:22.735Z,26.77
2019-01-12T22:19:03.326Z,32.53
2019-01-12T22:21:44.708Z,30.77
2019-01-12T22:24:26.533Z,28.37
2019-01-12T22:27:08.075Z,29.07
2019-01-12T22:29:50.022Z,27.47
2019-01-12T22:32:31.304Z,29.10
2019-01-12T22:35:12.450Z,28.60
2019-01-12T22:37:53.647Z,27.37
2019-01-12T22:40:34.491Z,30.77
2019-01-12T22:43:15.371Z,26.83
2019-01-12T22:45:54.920Z,33.20
2019-01-12T22:48:35.795Z,30.10
2019-01-12T22:51:17.478Z,35.43
2019-01-12T22:53:58.751Z,30.87
2019-01-12T22:56:40.249Z,35.17
2019-01-12T22:59:20.295Z,31.17
2019-01-12T23:02:03.735Z,29.43
2019-01-12T23:04:52.672Z,27.97
2019-01-12T23:07:33.500Z,29.33
2019-01-12T23:10:14.786Z,27.10
2019-01-12T23:12:55.244Z,28.77
2019-01-12T23:15:34.666Z,28.60
2019-01-12T23:18:15.973Z,30.17
2019-01-12T23:20:55.625Z,26.93
2019-01-12T23:23:37.403Z,33.23
2019-01-12T23:26:18.714Z,29.43
2019-01-12T23:28:58.177Z,31.27
2019-01-12T23:34:46.693Z,29.43
2019-01-12T23:37:27.271Z,31.27
2019-01-12T23:40:08.991Z,34.77
2019-01-12T23:42:50.373Z,28.90
2019-01-12T23:45:32.025Z,28.00
2019-01-12T23:48:11.402Z,29.27
2019-01-12T23:50:52.101Z,28.47
2019-01-12T23:53:33.002Z,29.63
2019-01-12T23:56:14.737Z,27.30
2019-01-12T23:58:55.398Z,26.87
